Flight Track Log - Related Links

Times and Time Zones

All times are in EDT time to prevent confusion due to time zone crossing. See the CNS33 flight status page for this flight to view local times or setup timezone preferences in your user account.

Time Position Orientation Groundspeed Altitude Reporting Facility
EDT Latitude Longitude Course Direction KTS MPH feet Rate Location/Type
Sat 10:41:32 AM 41.1747 -71.7286 267° West 199 229 6,100  Level Boston Center
Sat 10:41:51 AM 41.1708 -71.7481 255° West 201 231 6,500 1,400 Climbing Boston Center
Sat 10:42:32 AM 41.1647 -71.7950 260° West 230 265 7,500 1,545 Climbing Boston Center
Sat 10:43:32 AM 41.1569 -71.8722 262° West 214 246 9,100 1,400 Climbing Boston Center
Sat 10:44:32 AM 41.1447 -71.9411 257° West 208 239 10,300 700 Climbing Boston Center
Sat 10:45:32 AM 41.1347 -72.0267 261° West 213 245 10,500 100 Climbing Boston Center
Sat 10:46:32 AM 41.1225 -72.1178 260° West 239 275 10,500  Level Boston Center
Sat 10:47:32 AM 41.1103 -72.2142 260° West 262 302 10,500  Level Boston Center
Sat 10:48:32 AM 41.0978 -72.3078 260° West 262 302 10,500  Level Boston Center
Sat 10:49:32 AM 41.0853 -72.4042 260° West 262 302 10,500  Level Boston Center
Sat 10:51:42 AM 41.0500 -72.6167 258° West 262 302 10,500 32 Level New York TRACON
Sat 10:52:42 AM 41.0500 -72.7167 270° West 261 300 10,600  Climbing New York TRACON
Sat 10:53:42 AM 41.0333 -72.8000 255° West 262 302 10,500 -50 Descending New York TRACON
Sat 10:54:42 AM 41.0167 -72.9000 258° West 265 305 10,500  Level New York TRACON
Sat 10:55:42 AM 41.0000 -73.0000 258° West 267 307 10,500  Level New York TRACON
Sat 10:56:42 AM 41.0000 -73.0833 270° West 267 307 10,500  Level New York TRACON
Sat 10:57:42 AM 40.9833 -73.1833 258° West 262 302 10,500  Level New York TRACON
Sat 10:58:42 AM 40.9667 -73.2833 258° West 257 296 10,500 -400 Level New York TRACON
Sat 10:59:42 AM 40.9500 -73.3667 255° West 273 314 9,700 -850 Descending New York TRACON
Sat 11:00:42 AM 40.9333 -73.4833 259° West 286 329 8,800 -950 Descending New York TRACON
Sat 11:01:42 AM 40.9167 -73.5833 258° West 281 323 7,800 -950 Descending New York TRACON
Sat 11:02:42 AM 40.9167 -73.6833 270° West 273 314 6,900 -950 Descending New York TRACON
Sat 11:03:42 AM 40.9000 -73.7667 255° West 269 310 5,900 -650 Descending New York TRACON
Sat 11:04:42 AM 40.8833 -73.8667 258° West 256 295 5,600 -200 Descending New York TRACON
Sat 11:05:42 AM 40.8667 -73.9500 255° West 240 276 5,500 -400 Descending New York TRACON
Sat 11:06:42 AM 40.8500 -74.0500 258° West 253 291 4,800 -600 Descending New York TRACON
Sat 11:07:42 AM 40.8500 -74.1333 270° West 245 282 4,300 -650 Descending New York TRACON
Sat 11:08:42 AM 40.8333 -74.2167 255° West 225 259 3,500 -857 Descending New York TRACON
Sat 11:09:48 AM 40.8167 -74.3000 255° West 198 228 2,500 -700 Descending New York TRACON
Sat 11:10:42 AM 40.8000 -74.3500 246° West 171 197 2,100 -400 Descending New York TRACON
Sat 11:11:48 AM 40.7667 -74.3833 217° Southwest 141 162 1,700 -364 Descending New York TRACON

Login

Don't have an account? Register now (free) for customized features, flight alerts, and more!